Santa Rita d'Oeste, Brazil
Current Conditions -  °F | °C
As of 7:00 PM on Wednesday 22 Oct 2014 (Local Time) from SBSR Reporting Station
Clear Clear  
Wind Chill: 90°   Ceiling: Unl
Heat Index: 90°   Visibility: 6mi
Dew Point: 54°   Wind: 7mph
Humidity: 29%   Direction: 180°S
Pressure: 29.97"   Gusts: NA
Location:  20.14°S, 50.83°W
Report Text: SBSR 222100Z 18006KT CAVOK 32/12 Q1015
Loading
Personal Weather Stations






























Interactive Weather Map
Tropical Storm Tracking
New forecast layout! Learn more

10-Day Weather Forecast

Advertisements
Track Severe Weather on mobile